Terminal Aerodrome Forecast
Issued by NWS

Home | Current Version | Previous Version | Text Only | Print | Product List | Glossary On
Versions: 1 2 3 4 5 6 7 8 9 10 11 12 13 14 15 16 17 18 19
000
FTUS41 KOKX 260533
TAFSWF
TAF
KSWF 260533Z 2606/2712 26008KT P6SM FEW250
     FM261500 23010KT P6SM SCT250
     FM261800 23012G20KT P6SM SCT250 PROB30 2620/2624 TSRA BKN050CB
     FM270000 23010KT P6SM SCT250
     FM270200 26005KT P6SM BKN250
     FM270600 20005KT 6SM -SHRA BR OVC100
      AMD NOT SKED=

USA.gov is the U.S. government's official web portal to all federal, state and local government web resources and services.